Latest Weather Observations for Larapuna (Eddystone Point)

IDT60801

Issued at 3:02 am EDT Wednesday 7 December 2016 (issued every 30 minutes, with the page automatically refreshed every 10 minutes)

About weather observations | Map of weather stations | Latest weather observations for TAS | Other Formats
Station Details ID: 092045 Name: LARAPUNA (EDDYSTONE POINT) Lat: -40.99 Lon: 148.35 Height: 19.7 m
Data from the previous 72 hours. | See also: Recent months at Larapuna (Eddystone Point)
Date/Time
EDT
Temp
°C
App
Temp
°C
Dew
Point
°C
Rel
Hum
%
Delta-T
°C
Wind Press
QNH
hPa
Press
MSL
hPa
Rain since
9am
mm
Dir  Spd
km/h
Gust
km/h
Spd
kts
Gust
kts
07/03:00am 11.1 8.7 9.9 92 0.6 NW 13 15 7 8 1011.4 1011.4 0.0
07/02:30am 11.0 8.1 9.8 92 0.6 WNW 15 17 8 9 1011.7 1011.7 0.0
07/02:00am 11.3 8.8 9.7 90 0.8 WNW 13 15 7 8 1011.9 1011.9 0.0
07/01:30am 12.1 10.9 10.3 89 0.9 W 7 9 4 5 1011.8 1011.8 0.0
07/01:00am 12.4 11.3 10.5 88 1.0 SW 7 9 4 5 1011.9 1011.9 0.0
07/12:30am 12.8 11.4 10.9 88 1.0 SSE 9 9 5 5 1012.0 1012.0 0.0
07/12:00am 13.0 11.7 11.1 88 1.0 SE 9 11 5 6 1011.9 1011.9 0.0
 
Date/Time
EDT
Temp
°C
App
Temp
°C
Dew
Point
°C
Rel
Hum
%
Delta-T
°C
Wind Press
QNH
hPa
Press
MSL
hPa
Rain since
9am
mm
Dir  Spd
km/h
Gust
km/h
Spd
kts
Gust
kts
06/11:30pm 13.0 11.2 10.9 87 1.1 SE 11 13 6 7 1011.8 1011.8 0.0
06/11:00pm 13.1 11.3 11.0 87 1.1 SE 11 15 6 8 1011.8 1011.8 0.0
06/10:30pm 13.3 11.2 11.2 87 1.1 ESE 13 15 7 8 1011.9 1011.9 0.0
06/10:00pm 13.5 11.9 11.4 87 1.1 ESE 11 15 6 8 1011.8 1011.8 0.0
06/09:30pm 13.6 11.9 11.3 86 1.2 SE 11 15 6 8 1011.6 1011.6 0.0
06/09:00pm 13.6 11.5 11.3 86 1.2 ESE 13 15 7 8 1011.3 1011.3 0.0
06/08:30pm 13.7 12.1 11.4 86 1.2 ESE 11 13 6 7 1011.2 1011.2 0.0
06/08:00pm 14.0 12.4 11.5 85 1.3 SE 11 15 6 8 1010.9 1010.9 0.0
06/07:30pm 14.8 12.6 12.1 84 1.5 SSE 15 17 8 9 1010.4 1010.4 0.0
06/07:00pm 15.4 12.8 12.0 80 1.9 S 17 19 9 10 1010.0 1010.0 0.0
06/06:30pm 15.3 12.7 11.9 80 1.8 SSE 17 20 9 11 1009.8 1009.8 0.0
06/06:00pm 15.4 11.0 11.8 79 2.0 SSE 26 32 14 17 1009.1 1009.1 0.0
06/05:30pm 15.5 9.6 12.3 81 1.7 S 35 43 19 23 1008.3 1008.3 0.0
06/05:00pm 17.5 11.7 11.5 68 3.3 WSW 33 46 18 25 1007.7 1007.7 0.0
06/04:57pm 19.8 13.6 10.2 54 5.2 W 33 43 18 23 1007.8 1007.8 0.0
06/04:35pm 19.4 11.9 8.1 48 5.8 WNW 37 56 20 30 1007.3 1007.3 0.0
06/04:30pm 19.4 11.6 8.1 48 5.8 WNW 39 56 21 30 1007.2 1007.2 0.0
06/04:03pm 18.7 10.8 7.8 49 5.6 WNW 39 57 21 31 1006.8 1006.8 0.0
06/04:00pm 18.7 10.8 7.8 49 5.6 WNW 39 54 21 29 1006.9 1006.9 0.0
06/03:39pm 18.9 10.8 8.8 52 5.3 WNW 41 59 22 32 1007.0 1007.0 0.0
06/03:30pm 19.0 10.4 8.9 52 5.3 NW 44 61 24 33 1007.0 1007.0 0.0
06/03:03pm 18.9 10.8 8.6 51 5.4 WNW 41 59 22 32 1007.0 1007.0 0.0
06/03:00pm 18.9 10.5 9.1 53 5.2 NW 43 54 23 29 1007.0 1007.0 0.0
06/02:47pm 19.1 11.4 8.7 51 5.4 NW 39 59 21 32 1007.1 1007.1 0.0
06/02:30pm 18.3 10.5 8.3 52 5.1 WNW 39 54 21 29 1007.2 1007.2 0.0
06/02:04pm 18.6 11.6 8.3 51 5.3 WNW 35 54 19 29 1007.5 1007.5 0.0
06/02:00pm 18.0 10.7 7.1 49 5.5 WNW 35 52 19 28 1007.5 1007.5 0.0
06/01:51pm 18.4 11.3 8.1 51 5.3 WNW 35 48 19 26 1007.6 1007.6 0.0
06/01:41pm 18.1 10.0 7.2 49 5.5 NW 39 52 21 28 1007.8 1007.8 0.0
06/01:30pm 17.9 10.0 7.9 52 5.1 NW 39 57 21 31 1007.7 1007.7 0.0
06/01:03pm 17.5 10.3 7.8 53 4.9 WNW 35 54 19 29 1008.1 1008.1 0.0
06/01:00pm 18.2 10.9 8.7 54 4.9 NW 37 52 20 28 1008.2 1008.2 0.0
06/12:30pm 17.0 9.4 7.6 54 4.7 NW 37 50 20 27 1008.6 1008.6 0.0
06/12:20pm 17.1 9.9 7.7 54 4.7 NW 35 54 19 29 1008.6 1008.6 0.0
06/12:00pm 16.9 9.3 7.5 54 4.7 WNW 37 50 20 27 1008.9 1008.9 0.0
06/11:30am 17.4 11.6 8.0 54 4.8 NW 28 39 15 21 1009.0 1009.0 0.0
06/11:00am 16.2 9.9 8.9 62 3.8 NNW 32 39 17 21 1009.3 1009.3 0.0
06/10:30am 16.7 11.3 7.9 56 4.4 NW 26 33 14 18 1009.5 1009.5 0.0
06/10:00am 15.7 10.0 8.2 61 3.8 NW 28 37 15 20 1009.4 1009.4 0.0
06/09:30am 15.5 10.3 8.7 64 3.5 NW 26 35 14 19 1009.9 1009.9 0.0
06/09:00am 15.4 9.9 9.3 67 3.1 WNW 28 35 15 19 1009.9 1009.9 0.0
06/08:30am 14.7 9.0 9.7 72 2.6 WNW 30 43 16 23 1010.5 1010.5 0.0
06/08:00am 14.6 11.2 11.4 81 1.7 WNW 20 28 11 15 1010.1 1010.1 0.0
06/07:30am 14.7 12.3 12.6 87 1.1 W 17 24 9 13 1009.7 1009.7 0.0
06/07:00am 15.0 12.4 13.2 89 1.0 SW 19 20 10 11 1009.9 1009.9 0.0
06/06:30am 14.3 13.9 12.9 91 0.8 WSW 7 9 4 5 1009.6 1009.6 0.0
06/06:00am 14.4 14.0 13.0 91 0.8 SE 7 9 4 5 1009.2 1009.2 0.0
06/05:30am 14.3 11.4 13.0 92 0.7 ESE 20 22 11 12 1008.9 1008.9 0.0
06/05:00am 14.3 11.6 12.9 91 0.8 SE 19 20 10 11 1008.5 1008.5 0.0
06/04:30am 14.5 11.6 12.9 90 0.9 ESE 20 26 11 14 1009.1 1009.1 0.0
06/04:00am 14.7 11.4 12.9 89 1.0 ESE 22 28 12 15 1009.1 1009.1 0.0
06/03:30am 14.9 11.3 12.9 88 1.1 ESE 24 32 13 17 1009.6 1009.6 0.0
06/03:00am 14.9 11.2 12.6 86 1.3 E 24 35 13 19 1010.1 1010.1 0.0
06/02:30am 14.9 10.7 12.4 85 1.4 ESE 26 35 14 19 1010.3 1010.3 0.0
06/02:00am 14.9 11.5 12.4 85 1.4 ESE 22 32 12 17 1011.1 1011.1 0.0
06/01:30am 14.8 10.5 11.9 83 1.6 SE 26 37 14 20 1011.3 1011.3 0.0
06/01:00am 14.8 9.8 12.1 84 1.5 SE 30 37 16 20 1011.3 1011.3 0.0
06/12:30am 14.8 9.4 12.1 84 1.5 SE 32 41 17 22 1011.5 1011.5 0.0
06/12:00am 15.0 9.6 12.3 84 1.5 SE 32 39 17 21 1011.9 1011.9 0.0
 
Date/Time
EDT
Temp
°C
App
Temp
°C
Dew
Point
°C
Rel
Hum
%
Delta-T
°C
Wind Press
QNH
hPa
Press
MSL
hPa
Rain since
9am
mm
Dir  Spd
km/h
Gust
km/h
Spd
kts
Gust
kts
05/11:30pm 15.1 8.8 12.4 84 1.5 SSE 37 48 20 26 1012.5 1012.5 0.0
05/11:00pm 15.0 8.7 12.3 84 1.5 SSE 37 46 20 25 1012.5 1012.5 0.0
05/10:30pm 15.0 8.0 12.5 85 1.4 S 41 50 22 27 1012.1 1012.1 0.0
05/10:00pm 15.1 8.1 12.6 85 1.4 S 41 46 22 25 1011.5 1011.5 0.0
05/09:30pm 15.1 9.8 13.0 87 1.2 S 33 43 18 23 1011.5 1011.5 0.0
05/09:00pm 14.8 8.6 12.8 88 1.1 S 37 43 20 23 1011.2 1011.2 0.0
05/08:30pm 15.1 9.0 13.0 87 1.2 SSW 37 43 20 23 1010.8 1010.8 0.0
05/08:00pm 15.6 9.5 12.9 84 1.5 SSW 37 43 20 23 1010.2 1010.2 0.0
05/07:30pm 17.1 13.2 12.2 73 2.7 SSW 24 28 13 15 1009.4 1009.4 0.0
05/07:00pm 17.4 12.7 11.9 70 3.0 S 28 35 15 19 1008.6 1008.6 0.0
05/06:30pm 17.8 13.1 12.0 69 3.2 SSW 28 35 15 19 1008.2 1008.2 0.0
05/06:00pm 19.3 15.8 12.3 64 3.9 SSW 22 32 12 17 1008.1 1008.1 0.0
05/05:30pm 20.9 15.4 10.7 52 5.6 W 30 39 16 21 1007.3 1007.3 0.0
05/05:00pm 21.3 16.3 11.1 52 5.6 WNW 28 39 15 21 1006.6 1006.6 0.0
05/04:32pm 21.0 15.1 11.1 53 5.5 WNW 33 52 18 28 1006.5 1006.5 0.0
05/04:30pm 20.6 14.2 10.7 53 5.4 WNW 35 52 19 28 1006.4 1006.4 0.0
05/04:00pm 20.5 13.6 10.3 52 5.5 WNW 37 57 20 31 1006.4 1006.4 0.0
05/03:30pm 19.9 11.4 10.6 55 5.0 WNW 46 65 25 35 1006.2 1006.2 0.0
05/03:01pm 20.7 13.2 10.8 53 5.4 WNW 41 59 22 32 1005.8 1005.8 0.0
05/03:00pm 20.6 12.7 10.7 53 5.4 WNW 43 59 23 32 1005.8 1005.8 0.0
05/02:30pm 20.2 12.1 10.6 54 5.2 NW 44 65 24 35 1005.2 1005.2 0.0
05/02:06pm 20.8 13.1 10.3 51 5.7 WNW 41 59 22 32 1005.2 1005.2 0.0
05/02:00pm 20.1 12.0 10.2 53 5.4 WNW 43 59 23 32 1005.3 1005.3 0.0
05/01:30pm 19.5 11.0 10.5 56 4.9 NW 46 65 25 35 1005.3 1005.3 0.0
05/01:00pm 19.4 10.4 10.4 56 4.9 NW 48 67 26 36 1005.1 1005.1 0.0
05/12:31pm 19.3 11.3 10.3 56 4.8 WNW 43 61 23 33 1005.2 1005.2 0.0
05/12:30pm 19.8 12.3 11.0 57 4.8 WNW 41 54 22 29 1005.2 1005.2 0.0
05/12:00pm 19.6 12.9 9.8 53 5.2 WNW 35 56 19 30 1005.0 1005.0 0.0
05/11:30am 19.1 11.7 9.9 55 4.9 WNW 39 57 21 31 1004.9 1004.9 0.0
05/11:27am 19.0 12.0 9.8 55 4.9 WNW 37 57 20 31 1004.8 1004.8 0.0
05/11:00am 19.8 13.3 10.2 54 5.2 NW 35 50 19 27 1004.4 1004.4 0.0
05/10:30am 19.7 14.2 9.0 50 5.6 WNW 28 39 15 21 1004.0 1004.0 0.0
05/10:00am 19.3 12.9 9.5 53 5.2 WNW 33 54 18 29 1003.5 1003.5 0.0
05/09:37am 18.5 11.2 10.3 59 4.4 WNW 39 57 21 31 1003.1 1003.1 0.0
05/09:30am 18.4 11.3 11.0 62 4.0 WNW 39 54 21 29 1003.0 1003.0 0.0
05/09:00am 18.0 11.7 12.2 69 3.2 WNW 37 57 20 31 1002.5 1002.5 2.2
05/08:35am 17.5 10.1 13.0 75 2.5 WNW 44 63 24 34 1001.8 1001.8 2.2
05/08:30am 17.6 9.9 13.3 76 2.4 WNW 46 63 25 34 1001.6 1001.6 2.2
05/08:00am 17.1 8.5 14.0 82 1.8 WNW 52 72 28 39 1001.2 1001.2 2.2
05/07:30am 16.9 8.8 14.4 85 1.4 NW 50 70 27 38 1000.9 1000.9 2.0
05/07:01am 16.8 9.7 15.0 89 1.0 NW 46 65 25 35 1000.8 1000.8 2.0
05/07:00am 16.8 9.7 15.0 89 1.0 NW 46 63 25 34 1000.9 1000.9 2.0
05/06:38am 17.1 11.0 15.3 89 1.0 NW 41 63 22 34 1000.9 1000.9 2.0
05/06:30am 17.2 11.1 15.2 88 1.2 NW 41 57 22 31 1000.7 1000.7 2.0
05/06:00am 17.4 11.4 15.4 88 1.2 NW 41 63 22 34 1000.3 1000.3 2.0
05/05:30am 17.9 12.1 16.1 89 1.1 WNW 41 61 22 33 1000.6 1000.6 2.0
05/05:02am 19.3 13.4 15.8 80 2.1 NW 41 59 22 32 1000.1 1000.1 0.8
05/05:00am 19.3 13.1 15.8 80 2.1 NW 43 59 23 32 999.9 999.9 0.8
05/04:40am 17.7 13.4 15.3 86 1.4 NNW 32 50 17 27 999.3 999.3 0.8
05/04:30am 17.2 13.5 15.0 87 1.3 NNW 28 41 15 22 999.2 999.2 0.8
05/04:00am 17.4 14.1 14.9 85 1.5 NW 26 39 14 21 999.6 999.6 0.0
05/03:30am 17.2 13.7 14.5 84 1.6 NNW 26 35 14 19 999.3 999.3 0.0
05/03:00am 16.5 13.3 14.3 87 1.3 NNW 24 30 13 16 999.9 999.9 0.0
05/02:30am 16.5 13.7 14.3 87 1.3 NNW 22 28 12 15 1000.2 1000.2 0.0
05/02:00am 16.8 13.7 14.4 86 1.4 NNW 24 30 13 16 1000.6 1000.6 0.0
05/01:30am 15.7 14.6 14.2 91 0.9 NNW 13 17 7 9 1001.5 1001.5 0.0
05/01:00am 15.7 13.2 14.2 91 0.9 N 20 24 11 13 1002.2 1002.2 0.0
05/12:30am 15.6 13.8 14.5 93 0.6 N 17 19 9 10 1002.8 1002.8 0.0
05/12:00am 16.1 14.4 14.8 92 0.8 N 17 22 9 12 1003.9 1003.9 0.0
 
Date/Time
EDT
Temp
°C
App
Temp
°C
Dew
Point
°C
Rel
Hum
%
Delta-T
°C
Wind Press
QNH
hPa
Press
MSL
hPa
Rain since
9am
mm
Dir  Spd
km/h
Gust
km/h
Spd
kts
Gust
kts
04/11:30pm 16.8 13.2 15.3 91 0.9 N 28 35 15 19 1004.3 1004.3 0.0
04/11:00pm 16.9 12.5 15.2 90 1.0 N 32 43 17 23 1004.7 1004.7 0.0
04/10:30pm 17.2 13.4 15.7 91 0.9 N 30 39 16 21 1005.0 1005.0 0.0
04/10:00pm 16.8 14.4 15.3 91 0.9 NNW 22 30 12 16 1005.4 1005.4 0.0
04/09:30pm 16.7 14.3 15.4 92 0.8 N 22 32 12 17 1005.7 1005.7 0.0
04/09:00pm 16.5 15.3 15.0 91 0.9 N 15 19 8 10 1005.7 1005.7 0.0
04/08:30pm 16.8 15.7 15.3 91 0.9 N 15 19 8 10 1006.3 1006.3 0.0
04/08:00pm 17.0 15.9 15.3 90 1.0 N 15 20 8 11 1006.7 1006.7 0.0
04/07:30pm 17.5 17.1 15.3 87 1.3 NNE 11 19 6 10 1007.3 1007.3 0.0
04/07:00pm 17.4 17.7 15.0 86 1.4 NE 7 11 4 6 1007.8 1007.8 0.0
04/06:30pm 17.7 18.9 14.8 83 1.7 SSE 2 9 1 5 1007.7 1007.7 0.0
04/06:00pm 17.7 19.2 14.6 82 1.8 CALM 0 6 0 3 1008.1 1008.1 0.0
04/05:30pm 17.6 17.6 14.3 81 1.9 ENE 7 9 4 5 1008.3 1008.3 0.0
04/05:00pm 18.2 17.2 14.5 79 2.1 NE 13 17 7 9 1008.8 1008.8 0.0
04/04:30pm 18.7 17.6 14.2 75 2.6 NE 13 17 7 9 1009.3 1009.3 0.0
04/04:00pm 18.2 15.9 14.1 77 2.4 NE 19 20 10 11 1009.7 1009.7 0.0
04/03:30pm 18.2 15.6 13.9 76 2.5 NE 20 22 11 12 1010.3 1010.3 0.0
04/03:00pm 18.5 15.6 14.0 75 2.6 NE 22 26 12 14 1010.7 1010.7 0.0
04/02:30pm 19.1 16.2 14.1 73 2.9 NE 22 24 12 13 1010.9 1010.9 0.0
04/02:00pm 17.6 15.7 13.1 75 2.5 NNE 15 19 8 10 1011.5 1011.5 0.0
04/01:30pm 17.4 15.2 12.1 71 2.9 NNE 15 17 8 9 1012.1 1012.1 0.0
04/01:00pm 18.4 16.5 11.9 66 3.6 N 13 15 7 8 1012.7 1012.7 0.0
04/12:30pm 18.3 16.0 11.6 65 3.7 N 15 19 8 10 1013.1 1013.1 0.0
04/12:00pm 17.8 15.3 11.1 65 3.6 N 15 19 8 10 1013.2 1013.2 0.0
04/11:30am 17.5 14.9 10.6 64 3.7 N 15 17 8 9 1013.4 1013.4 0.0
04/11:00am 17.2 14.9 10.6 65 3.5 N 13 17 7 9 1013.8 1013.8 0.0
04/10:30am 17.3 14.4 10.9 66 3.4 N 17 20 9 11 1014.1 1014.1 0.0
04/10:00am 16.4 12.8 10.7 69 3.0 N 20 24 11 13 1014.5 1014.5 0.0
04/09:30am 15.8 12.4 9.2 65 3.4 N 17 19 9 10 1014.7 1014.7 0.0
04/09:00am 15.5 12.7 8.5 63 3.5 N 13 17 7 9 1014.7 1014.7 0.0
04/08:30am 15.1 12.5 9.5 69 2.9 N 13 15 7 8 1014.8 1014.8 0.0
04/08:00am 14.9 12.5 8.8 67 3.1 N 11 13 6 7 1014.8 1014.8 0.0
04/07:30am 13.9 11.2 9.1 73 2.4 NW 13 15 7 8 1015.0 1015.0 0.0
04/07:00am 12.8 10.5 9.1 78 1.9 NW 11 15 6 8 1015.1 1015.1 0.0
04/06:30am 11.3 9.0 8.9 85 1.2 NW 11 13 6 7 1015.1 1015.1 0.0
04/06:00am 10.5 7.7 8.4 87 1.0 NNW 13 17 7 9 1014.8 1014.8 0.0
04/05:30am 10.2 7.8 8.5 89 0.8 NW 11 13 6 7 1014.4 1014.4 0.0
04/05:00am 9.8 7.3 8.1 89 0.8 NNW 11 13 6 7 1014.2 1014.2 0.0
04/04:30am 9.8 7.2 7.9 88 0.9 NW 11 13 6 7 1014.4 1014.4 0.0
04/04:00am 9.8 7.1 7.4 85 1.1 NW 11 13 6 7 1014.5 1014.5 0.0
04/03:30am 9.8 7.2 7.9 88 0.9 NNW 11 13 6 7 1014.5 1014.5 0.0

Other Formats:

Comma delimited format used in spreadsheet applications
http://www.bom.gov.au/fwo/IDT60801/IDT60801.94983.axf

JavaScript Object Notation format (JSON) in row-major order
http://www.bom.gov.au/fwo/IDT60801/IDT60801.94983.json